sensor_id;sensor_type;location;lat;lon;timestamp;P1;durP1;ratioP1;P2;durP2;ratioP2
73239;SDS011;61452;40.054;4.110;2022-09-16T00:03:29;2.15;;;1.58;;
73239;SDS011;61452;40.054;4.110;2022-09-16T00:08:32;3.10;;;1.70;;
73239;SDS011;61452;40.054;4.110;2022-09-16T00:13:34;2.20;;;1.50;;
73239;SDS011;61452;40.054;4.110;2022-09-16T00:18:36;2.83;;;1.52;;
73239;SDS011;61452;40.054;4.110;2022-09-16T00:23:39;3.42;;;1.90;;
73239;SDS011;61452;40.054;4.110;2022-09-16T00:28:41;2.58;;;1.65;;
73239;SDS011;61452;40.054;4.110;2022-09-16T00:33:43;2.80;;;1.83;;
73239;SDS011;61452;40.054;4.110;2022-09-16T00:38:48;2.47;;;1.80;;
73239;SDS011;61452;40.054;4.110;2022-09-16T00:43:56;2.35;;;1.92;;
73239;SDS011;61452;40.054;4.110;2022-09-16T00:49:00;2.55;;;1.80;;
73239;SDS011;61452;40.054;4.110;2022-09-16T00:54:06;2.80;;;1.80;;
73239;SDS011;61452;40.054;4.110;2022-09-16T00:59:14;2.38;;;1.80;;
73239;SDS011;61452;40.054;4.110;2022-09-16T01:04:30;2.60;;;1.83;;
73239;SDS011;61452;40.054;4.110;2022-09-16T01:09:36;2.33;;;1.70;;
73239;SDS011;61452;40.054;4.110;2022-09-16T01:14:39;3.15;;;1.73;;
73239;SDS011;61452;40.054;4.110;2022-09-16T01:30:42;2.10;;;1.90;;
73239;SDS011;61452;40.054;4.110;2022-09-16T01:47:11;2.95;;;1.50;;
73239;SDS011;61452;40.054;4.110;2022-09-16T01:57:35;2.22;;;1.60;;
73239;SDS011;61452;40.054;4.110;2022-09-16T02:08:00;2.70;;;1.80;;
73239;SDS011;61452;40.054;4.110;2022-09-16T02:13:09;2.67;;;1.77;;
73239;SDS011;61452;40.054;4.110;2022-09-16T02:18:16;3.28;;;1.80;;
73239;SDS011;61452;40.054;4.110;2022-09-16T02:28:31;3.97;;;2.00;;
73239;SDS011;61452;40.054;4.110;2022-09-16T02:33:47;4.07;;;2.00;;
73239;SDS011;61452;40.054;4.110;2022-09-16T02:38:59;3.97;;;2.00;;
73239;SDS011;61452;40.054;4.110;2022-09-16T02:44:07;3.25;;;1.90;;
73239;SDS011;61452;40.054;4.110;2022-09-16T02:49:28;2.67;;;1.95;;
73239;SDS011;61452;40.054;4.110;2022-09-16T03:00:22;2.97;;;1.80;;
73239;SDS011;61452;40.054;4.110;2022-09-16T03:05:27;4.63;;;1.95;;
73239;SDS011;61452;40.054;4.110;2022-09-16T03:10:34;4.10;;;2.08;;
73239;SDS011;61452;40.054;4.110;2022-09-16T03:15:48;2.97;;;1.90;;
73239;SDS011;61452;40.054;4.110;2022-09-16T03:31:18;2.58;;;1.95;;
73239;SDS011;61452;40.054;4.110;2022-09-16T03:36:30;4.97;;;2.13;;
73239;SDS011;61452;40.054;4.110;2022-09-16T03:41:37;3.20;;;1.80;;
73239;SDS011;61452;40.054;4.110;2022-09-16T03:46:40;3.05;;;1.85;;
73239;SDS011;61452;40.054;4.110;2022-09-16T03:51:42;3.67;;;1.73;;
73239;SDS011;61452;40.054;4.110;2022-09-16T03:56:44;3.75;;;2.08;;
73239;SDS011;61452;40.054;4.110;2022-09-16T04:01:46;2.88;;;1.80;;
73239;SDS011;61452;40.054;4.110;2022-09-16T04:06:49;3.25;;;1.70;;
73239;SDS011;61452;40.054;4.110;2022-09-16T04:11:51;4.10;;;1.75;;
73239;SDS011;61452;40.054;4.110;2022-09-16T04:16:53;3.05;;;1.90;;
73239;SDS011;61452;40.054;4.110;2022-09-16T04:21:55;3.22;;;1.75;;
73239;SDS011;61452;40.054;4.110;2022-09-16T04:26:57;3.38;;;2.00;;
73239;SDS011;61452;40.054;4.110;2022-09-16T04:31:59;2.85;;;1.60;;
73239;SDS011;61452;40.054;4.110;2022-09-16T04:37:01;3.35;;;2.03;;
73239;SDS011;61452;40.054;4.110;2022-09-16T04:42:04;3.40;;;1.92;;
73239;SDS011;61452;40.054;4.110;2022-09-16T04:47:07;2.83;;;1.63;;
73239;SDS011;61452;40.054;4.110;2022-09-16T04:52:09;4.03;;;1.83;;
73239;SDS011;61452;40.054;4.110;2022-09-16T04:57:11;3.33;;;1.70;;
73239;SDS011;61452;40.054;4.110;2022-09-16T05:02:13;3.97;;;2.25;;
73239;SDS011;61452;40.054;4.110;2022-09-16T05:07:15;2.60;;;1.70;;
73239;SDS011;61452;40.054;4.110;2022-09-16T05:12:17;3.08;;;1.60;;
73239;SDS011;61452;40.054;4.110;2022-09-16T05:17:19;3.25;;;1.80;;
73239;SDS011;61452;40.054;4.110;2022-09-16T05:22:41;4.72;;;2.17;;
73239;SDS011;61452;40.054;4.110;2022-09-16T05:27:43;5.30;;;1.85;;
73239;SDS011;61452;40.054;4.110;2022-09-16T05:32:45;3.83;;;1.88;;
73239;SDS011;61452;40.054;4.110;2022-09-16T05:37:48;3.25;;;1.60;;
73239;SDS011;61452;40.054;4.110;2022-09-16T05:42:51;3.60;;;1.92;;
73239;SDS011;61452;40.054;4.110;2022-09-16T05:47:53;5.13;;;2.10;;
73239;SDS011;61452;40.054;4.110;2022-09-16T05:52:55;4.13;;;1.83;;
73239;SDS011;61452;40.054;4.110;2022-09-16T05:57:57;5.70;;;2.40;;
73239;SDS011;61452;40.054;4.110;2022-09-16T06:02:59;4.50;;;2.15;;
73239;SDS011;61452;40.054;4.110;2022-09-16T06:08:01;4.70;;;2.28;;
73239;SDS011;61452;40.054;4.110;2022-09-16T06:13:03;4.78;;;2.35;;
73239;SDS011;61452;40.054;4.110;2022-09-16T06:18:06;5.97;;;2.55;;
73239;SDS011;61452;40.054;4.110;2022-09-16T06:23:08;5.57;;;2.25;;
73239;SDS011;61452;40.054;4.110;2022-09-16T06:28:10;4.28;;;2.25;;
73239;SDS011;61452;40.054;4.110;2022-09-16T06:33:12;3.60;;;2.05;;
73239;SDS011;61452;40.054;4.110;2022-09-16T06:38:14;9.63;;;3.55;;
73239;SDS011;61452;40.054;4.110;2022-09-16T06:43:16;35.60;;;10.23;;
73239;SDS011;61452;40.054;4.110;2022-09-16T06:48:18;23.08;;;7.40;;
73239;SDS011;61452;40.054;4.110;2022-09-16T06:53:21;17.35;;;6.45;;
73239;SDS011;61452;40.054;4.110;2022-09-16T06:58:23;24.88;;;8.55;;
73239;SDS011;61452;40.054;4.110;2022-09-16T07:03:24;17.70;;;6.88;;
73239;SDS011;61452;40.054;4.110;2022-09-16T07:08:27;21.85;;;6.82;;
73239;SDS011;61452;40.054;4.110;2022-09-16T07:13:30;19.35;;;6.45;;
73239;SDS011;61452;40.054;4.110;2022-09-16T07:18:33;15.25;;;5.68;;
73239;SDS011;61452;40.054;4.110;2022-09-16T07:23:35;11.23;;;3.92;;
73239;SDS011;61452;40.054;4.110;2022-09-16T07:28:39;14.10;;;4.40;;
73239;SDS011;61452;40.054;4.110;2022-09-16T07:33:43;15.30;;;4.25;;
73239;SDS011;61452;40.054;4.110;2022-09-16T07:38:48;11.13;;;3.80;;
73239;SDS011;61452;40.054;4.110;2022-09-16T07:43:52;13.48;;;4.30;;
73239;SDS011;61452;40.054;4.110;2022-09-16T07:48:56;14.35;;;4.07;;
73239;SDS011;61452;40.054;4.110;2022-09-16T07:54:00;9.25;;;3.45;;
73239;SDS011;61452;40.054;4.110;2022-09-16T07:59:08;9.23;;;3.35;;
73239;SDS011;61452;40.054;4.110;2022-09-16T08:04:19;8.82;;;2.95;;
73239;SDS011;61452;40.054;4.110;2022-09-16T08:09:21;8.07;;;2.83;;
73239;SDS011;61452;40.054;4.110;2022-09-16T08:14:43;7.18;;;2.20;;
73239;SDS011;61452;40.054;4.110;2022-09-16T08:19:45;7.32;;;2.42;;
73239;SDS011;61452;40.054;4.110;2022-09-16T08:24:47;7.25;;;2.20;;
73239;SDS011;61452;40.054;4.110;2022-09-16T08:29:49;7.18;;;2.72;;
73239;SDS011;61452;40.054;4.110;2022-09-16T08:34:51;9.40;;;2.13;;
73239;SDS011;61452;40.054;4.110;2022-09-16T08:39:54;6.97;;;2.05;;
73239;SDS011;61452;40.054;4.110;2022-09-16T08:50:03;5.47;;;1.83;;
73239;SDS011;61452;40.054;4.110;2022-09-16T08:55:14;5.72;;;1.70;;
73239;SDS011;61452;40.054;4.110;2022-09-16T09:00:24;4.13;;;1.42;;
73239;SDS011;61452;40.054;4.110;2022-09-16T09:05:38;3.08;;;1.30;;
73239;SDS011;61452;40.054;4.110;2022-09-16T09:10:51;4.45;;;1.42;;
73239;SDS011;61452;40.054;4.110;2022-09-16T09:16:23;3.72;;;1.60;;
73239;SDS011;61452;40.054;4.110;2022-09-16T09:42:18;3.33;;;1.27;;
73239;SDS011;61452;40.054;4.110;2022-09-16T09:47:38;6.55;;;1.30;;
73239;SDS011;61452;40.054;4.110;2022-09-16T09:53:34;4.25;;;1.30;;
73239;SDS011;61452;40.054;4.110;2022-09-16T09:58:29;4.93;;;1.58;;
73239;SDS011;61452;40.054;4.110;2022-09-16T10:03:37;4.07;;;1.30;;
73239;SDS011;61452;40.054;4.110;2022-09-16T10:08:44;6.45;;;1.42;;
73239;SDS011;61452;40.054;4.110;2022-09-16T10:13:50;3.40;;;1.20;;
73239;SDS011;61452;40.054;4.110;2022-09-16T10:19:06;4.10;;;1.40;;
73239;SDS011;61452;40.054;4.110;2022-09-16T10:29:33;3.25;;;1.40;;
73239;SDS011;61452;40.054;4.110;2022-09-16T10:34:36;5.30;;;1.20;;
73239;SDS011;61452;40.054;4.110;2022-09-16T10:39:47;8.07;;;1.70;;
73239;SDS011;61452;40.054;4.110;2022-09-16T10:44:54;5.28;;;1.33;;
73239;SDS011;61452;40.054;4.110;2022-09-16T10:50:02;7.10;;;1.70;;
73239;SDS011;61452;40.054;4.110;2022-09-16T11:16:15;5.82;;;1.80;;
73239;SDS011;61452;40.054;4.110;2022-09-16T11:27:05;4.35;;;1.85;;
73239;SDS011;61452;40.054;4.110;2022-09-16T11:37:29;4.15;;;2.22;;
73239;SDS011;61452;40.054;4.110;2022-09-16T11:42:45;7.55;;;1.95;;
73239;SDS011;61452;40.054;4.110;2022-09-16T11:53:06;8.15;;;1.95;;
73239;SDS011;61452;40.054;4.110;2022-09-16T12:15:23;7.38;;;2.45;;
73239;SDS011;61452;40.054;4.110;2022-09-16T12:20:29;8.50;;;2.60;;
73239;SDS011;61452;40.054;4.110;2022-09-16T12:25:40;7.57;;;2.08;;
73239;SDS011;61452;40.054;4.110;2022-09-16T12:30:48;9.82;;;2.17;;
73239;SDS011;61452;40.054;4.110;2022-09-16T12:46:58;7.47;;;2.25;;
73239;SDS011;61452;40.054;4.110;2022-09-16T12:57:32;9.07;;;2.47;;
73239;SDS011;61452;40.054;4.110;2022-09-16T13:02:53;6.40;;;2.35;;
73239;SDS011;61452;40.054;4.110;2022-09-16T13:08:01;6.82;;;2.30;;
73239;SDS011;61452;40.054;4.110;2022-09-16T13:13:07;8.70;;;2.17;;
73239;SDS011;61452;40.054;4.110;2022-09-16T13:18:36;7.80;;;2.20;;
73239;SDS011;61452;40.054;4.110;2022-09-16T13:23:45;5.18;;;2.15;;
73239;SDS011;61452;40.054;4.110;2022-09-16T13:28:52;5.90;;;1.92;;
73239;SDS011;61452;40.054;4.110;2022-09-16T13:39:00;5.57;;;2.60;;
73239;SDS011;61452;40.054;4.110;2022-09-16T13:54:54;6.57;;;2.03;;
73239;SDS011;61452;40.054;4.110;2022-09-16T14:00:17;7.85;;;1.90;;
73239;SDS011;61452;40.054;4.110;2022-09-16T14:10:57;6.78;;;2.50;;
73239;SDS011;61452;40.054;4.110;2022-09-16T14:16:14;12.07;;;2.80;;
73239;SDS011;61452;40.054;4.110;2022-09-16T14:21:27;8.20;;;2.88;;
73239;SDS011;61452;40.054;4.110;2022-09-16T14:26:29;7.03;;;2.65;;
73239;SDS011;61452;40.054;4.110;2022-09-16T14:31:31;9.57;;;2.97;;
73239;SDS011;61452;40.054;4.110;2022-09-16T14:41:46;13.30;;;3.35;;
73239;SDS011;61452;40.054;4.110;2022-09-16T14:46:55;9.07;;;3.03;;
73239;SDS011;61452;40.054;4.110;2022-09-16T14:52:20;8.77;;;2.92;;
73239;SDS011;61452;40.054;4.110;2022-09-16T14:57:24;11.02;;;3.30;;
73239;SDS011;61452;40.054;4.110;2022-09-16T15:02:40;10.57;;;2.63;;
73239;SDS011;61452;40.054;4.110;2022-09-16T15:07:47;11.38;;;2.95;;
73239;SDS011;61452;40.054;4.110;2022-09-16T15:13:11;12.57;;;3.40;;
73239;SDS011;61452;40.054;4.110;2022-09-16T15:18:32;11.52;;;3.13;;
73239;SDS011;61452;40.054;4.110;2022-09-16T15:23:36;10.07;;;3.47;;
73239;SDS011;61452;40.054;4.110;2022-09-16T15:29:00;10.10;;;3.63;;
73239;SDS011;61452;40.054;4.110;2022-09-16T15:34:18;9.85;;;3.33;;
73239;SDS011;61452;40.054;4.110;2022-09-16T15:39:28;19.15;;;5.25;;
73239;SDS011;61452;40.054;4.110;2022-09-16T15:44:35;17.17;;;3.75;;
73239;SDS011;61452;40.054;4.110;2022-09-16T15:49:39;12.75;;;2.97;;
73239;SDS011;61452;40.054;4.110;2022-09-16T16:05:03;8.20;;;3.05;;
73239;SDS011;61452;40.054;4.110;2022-09-16T16:10:29;10.40;;;3.67;;
73239;SDS011;61452;40.054;4.110;2022-09-16T16:15:33;14.25;;;3.40;;
73239;SDS011;61452;40.054;4.110;2022-09-16T16:20:38;8.40;;;2.47;;
73239;SDS011;61452;40.054;4.110;2022-09-16T16:25:41;9.30;;;3.35;;
73239;SDS011;61452;40.054;4.110;2022-09-16T16:30:43;9.52;;;3.05;;
73239;SDS011;61452;40.054;4.110;2022-09-16T16:35:45;8.13;;;3.03;;
73239;SDS011;61452;40.054;4.110;2022-09-16T16:40:50;8.32;;;3.28;;
73239;SDS011;61452;40.054;4.110;2022-09-16T16:45:53;7.88;;;2.80;;
73239;SDS011;61452;40.054;4.110;2022-09-16T16:51:03;6.75;;;2.67;;
73239;SDS011;61452;40.054;4.110;2022-09-16T16:56:08;8.27;;;2.60;;
73239;SDS011;61452;40.054;4.110;2022-09-16T17:01:16;9.27;;;2.20;;
73239;SDS011;61452;40.054;4.110;2022-09-16T17:06:19;7.55;;;2.90;;
73239;SDS011;61452;40.054;4.110;2022-09-16T17:11:21;7.07;;;2.60;;
73239;SDS011;61452;40.054;4.110;2022-09-16T17:21:28;6.15;;;2.60;;
73239;SDS011;61452;40.054;4.110;2022-09-16T17:26:32;7.18;;;2.22;;
73239;SDS011;61452;40.054;4.110;2022-09-16T17:31:34;6.00;;;2.17;;
73239;SDS011;61452;40.054;4.110;2022-09-16T17:36:41;3.83;;;1.98;;
73239;SDS011;61452;40.054;4.110;2022-09-16T17:41:45;6.82;;;2.00;;
73239;SDS011;61452;40.054;4.110;2022-09-16T17:46:49;3.70;;;1.80;;
73239;SDS011;61452;40.054;4.110;2022-09-16T17:51:51;4.82;;;1.90;;
73239;SDS011;61452;40.054;4.110;2022-09-16T17:56:54;4.13;;;2.13;;
73239;SDS011;61452;40.054;4.110;2022-09-16T18:01:56;4.38;;;1.85;;
73239;SDS011;61452;40.054;4.110;2022-09-16T18:06:58;3.30;;;1.48;;
73239;SDS011;61452;40.054;4.110;2022-09-16T18:12:00;3.55;;;1.58;;
73239;SDS011;61452;40.054;4.110;2022-09-16T18:17:02;4.50;;;1.80;;
73239;SDS011;61452;40.054;4.110;2022-09-16T18:22:05;5.35;;;1.90;;
73239;SDS011;61452;40.054;4.110;2022-09-16T18:27:07;3.05;;;1.50;;
73239;SDS011;61452;40.054;4.110;2022-09-16T18:32:09;4.70;;;1.73;;
73239;SDS011;61452;40.054;4.110;2022-09-16T18:37:11;4.60;;;1.70;;
73239;SDS011;61452;40.054;4.110;2022-09-16T18:42:13;4.20;;;1.88;;
73239;SDS011;61452;40.054;4.110;2022-09-16T18:47:15;5.82;;;1.75;;
73239;SDS011;61452;40.054;4.110;2022-09-16T18:52:17;4.30;;;1.50;;
73239;SDS011;61452;40.054;4.110;2022-09-16T18:57:19;3.42;;;1.80;;
73239;SDS011;61452;40.054;4.110;2022-09-16T19:02:23;4.32;;;1.40;;
73239;SDS011;61452;40.054;4.110;2022-09-16T19:07:26;6.43;;;1.63;;
73239;SDS011;61452;40.054;4.110;2022-09-16T19:12:28;3.58;;;1.52;;
73239;SDS011;61452;40.054;4.110;2022-09-16T19:17:30;5.20;;;1.98;;
73239;SDS011;61452;40.054;4.110;2022-09-16T19:22:33;3.03;;;1.30;;
73239;SDS011;61452;40.054;4.110;2022-09-16T19:27:36;3.33;;;1.50;;
73239;SDS011;61452;40.054;4.110;2022-09-16T19:32:39;5.30;;;1.52;;
73239;SDS011;61452;40.054;4.110;2022-09-16T19:37:42;3.88;;;1.58;;
73239;SDS011;61452;40.054;4.110;2022-09-16T19:42:44;5.95;;;2.00;;
73239;SDS011;61452;40.054;4.110;2022-09-16T19:47:45;4.25;;;2.08;;
73239;SDS011;61452;40.054;4.110;2022-09-16T19:52:48;4.10;;;1.70;;
73239;SDS011;61452;40.054;4.110;2022-09-16T19:57:50;3.50;;;1.60;;
73239;SDS011;61452;40.054;4.110;2022-09-16T20:02:52;3.80;;;1.70;;
73239;SDS011;61452;40.054;4.110;2022-09-16T20:07:55;3.63;;;1.60;;
73239;SDS011;61452;40.054;4.110;2022-09-16T20:12:57;5.28;;;1.60;;
73239;SDS011;61452;40.054;4.110;2022-09-16T20:18:00;3.92;;;1.40;;
73239;SDS011;61452;40.054;4.110;2022-09-16T20:23:01;3.88;;;1.50;;
73239;SDS011;61452;40.054;4.110;2022-09-16T20:28:04;3.70;;;1.55;;
73239;SDS011;61452;40.054;4.110;2022-09-16T20:33:06;3.33;;;1.55;;
73239;SDS011;61452;40.054;4.110;2022-09-16T20:38:08;2.83;;;1.40;;
73239;SDS011;61452;40.054;4.110;2022-09-16T20:43:11;3.30;;;1.27;;
73239;SDS011;61452;40.054;4.110;2022-09-16T20:48:13;4.00;;;1.75;;
73239;SDS011;61452;40.054;4.110;2022-09-16T20:53:15;3.50;;;1.20;;
73239;SDS011;61452;40.054;4.110;2022-09-16T20:58:17;2.00;;;1.23;;
73239;SDS011;61452;40.054;4.110;2022-09-16T21:03:19;4.03;;;1.38;;
73239;SDS011;61452;40.054;4.110;2022-09-16T21:08:21;2.72;;;1.40;;
73239;SDS011;61452;40.054;4.110;2022-09-16T21:13:23;2.38;;;1.30;;
73239;SDS011;61452;40.054;4.110;2022-09-16T21:18:25;2.90;;;1.33;;
73239;SDS011;61452;40.054;4.110;2022-09-16T21:28:31;3.13;;;1.50;;
73239;SDS011;61452;40.054;4.110;2022-09-16T21:33:35;3.13;;;1.40;;
73239;SDS011;61452;40.054;4.110;2022-09-16T21:38:38;2.47;;;1.30;;
73239;SDS011;61452;40.054;4.110;2022-09-16T21:43:42;2.65;;;1.10;;
73239;SDS011;61452;40.054;4.110;2022-09-16T21:48:49;4.43;;;1.80;;
73239;SDS011;61452;40.054;4.110;2022-09-16T21:53:51;2.17;;;1.27;;
73239;SDS011;61452;40.054;4.110;2022-09-16T21:58:53;3.33;;;1.20;;
73239;SDS011;61452;40.054;4.110;2022-09-16T22:03:57;2.55;;;1.30;;
73239;SDS011;61452;40.054;4.110;2022-09-16T22:09:02;3.90;;;1.30;;
73239;SDS011;61452;40.054;4.110;2022-09-16T22:14:07;1.92;;;1.40;;
73239;SDS011;61452;40.054;4.110;2022-09-16T22:19:13;2.70;;;1.63;;
73239;SDS011;61452;40.054;4.110;2022-09-16T22:24:16;1.85;;;1.13;;
73239;SDS011;61452;40.054;4.110;2022-09-16T22:29:22;2.25;;;1.10;;
73239;SDS011;61452;40.054;4.110;2022-09-16T22:34:24;2.50;;;1.20;;
73239;SDS011;61452;40.054;4.110;2022-09-16T22:39:26;2.00;;;1.10;;
73239;SDS011;61452;40.054;4.110;2022-09-16T22:44:28;2.15;;;1.33;;
73239;SDS011;61452;40.054;4.110;2022-09-16T22:49:31;1.50;;;1.05;;
73239;SDS011;61452;40.054;4.110;2022-09-16T22:54:33;1.70;;;1.20;;
73239;SDS011;61452;40.054;4.110;2022-09-16T22:59:35;2.83;;;1.40;;
73239;SDS011;61452;40.054;4.110;2022-09-16T23:04:37;2.15;;;1.20;;
73239;SDS011;61452;40.054;4.110;2022-09-16T23:09:39;3.17;;;1.33;;
73239;SDS011;61452;40.054;4.110;2022-09-16T23:14:41;2.65;;;1.40;;
73239;SDS011;61452;40.054;4.110;2022-09-16T23:19:44;4.53;;;1.20;;
73239;SDS011;61452;40.054;4.110;2022-09-16T23:24:46;3.22;;;1.20;;
73239;SDS011;61452;40.054;4.110;2022-09-16T23:29:48;2.55;;;1.10;;
73239;SDS011;61452;40.054;4.110;2022-09-16T23:34:50;3.55;;;1.33;;
73239;SDS011;61452;40.054;4.110;2022-09-16T23:39:52;3.28;;;1.30;;
73239;SDS011;61452;40.054;4.110;2022-09-16T23:44:54;3.80;;;1.52;;
73239;SDS011;61452;40.054;4.110;2022-09-16T23:49:57;3.08;;;1.23;;
73239;SDS011;61452;40.054;4.110;2022-09-16T23:54:59;3.78;;;1.50;;
